Time;durP1;ratioP1;P1;durP2;ratioP2;P2;SDS_P1;SDS_P2;PMS_P1;PMS_P2;Temp;Humidity;BMP_temperature;BMP_pressure;BME280_temperature;BME280_humidity;BME280_pressure;Samples;Min_cycle;Max_cycle;Signal;HPM_P1;HPM_P2
2022/11/08 00:02:09;;;;;;;1.17;1.17;;;18.30;71.90;;;;;;5043931;28;43879;-75
2022/11/08 00:04:37;;;;;;;1.23;1.23;;;18.30;72.00;;;;;;5047696;28;43385;-75
2022/11/08 00:15:23;;;;;;;1.00;1.00;;;18.50;71.10;;;;;;5047502;28;43563;-74
2022/11/08 00:17:50;;;;;;;1.17;1.17;;;18.40;71.40;;;;;;5047544;28;43416;-74
2022/11/08 00:20:18;;;;;;;0.90;0.90;;;18.40;71.30;;;;;;5048371;28;43929;-74
2022/11/08 00:22:48;;;;;;;1.07;1.07;;;18.40;71.20;;;;;;5047556;28;43880;-74
2022/11/08 00:25:16;;;;;;;1.00;1.00;;;18.40;71.20;;;;;;5047145;28;43378;-75
2022/11/08 00:27:44;;;;;;;1.23;1.23;;;18.40;71.30;;;;;;5044177;28;43428;-75
2022/11/08 00:30:12;;;;;;;1.30;1.30;;;18.30;71.30;;;;;;5044691;28;43436;-74
2022/11/08 00:32:40;;;;;;;0.80;0.80;;;18.30;72.50;;;;;;5047150;28;43968;-75
2022/11/08 00:35:08;;;;;;;1.27;1.27;;;18.40;71.80;;;;;;5028789;28;44732;-73
2022/11/08 00:37:36;;;;;;;1.17;1.17;;;18.40;71.40;;;;;;5047163;28;43424;-75
2022/11/08 00:40:06;;;;;;;1.00;1.00;;;18.50;71.20;;;;;;5048183;28;43822;-74
2022/11/08 00:42:34;;;;;;;0.90;0.90;;;18.40;71.10;;;;;;5032001;28;45655;-74
2022/11/08 00:45:02;;;;;;;1.20;1.20;;;18.40;71.30;;;;;;5047397;28;43566;-73
2022/11/08 00:47:30;;;;;;;1.10;1.10;;;18.40;71.50;;;;;;5047147;28;43446;-74
2022/11/08 00:49:58;;;;;;;1.20;1.20;;;18.40;71.40;;;;;;5047087;28;43448;-73
2022/11/08 00:52:26;;;;;;;1.10;1.10;;;18.40;71.30;;;;;;5030543;28;45705;-74
2022/11/08 00:54:54;;;;;;;1.20;1.20;;;18.40;71.40;;;;;;5046701;28;43976;-75
2022/11/08 00:57:23;;;;;;;1.10;1.10;;;18.30;71.40;;;;;;5047014;28;43453;-75
2022/11/08 01:00:13;;;;;;;1.20;1.20;;;18.30;71.90;;;;;;5047415;28;43341;-75
2022/11/08 01:02:41;;;;;;;1.10;1.10;;;18.30;71.80;;;;;;5043641;28;43840;-74
2022/11/08 01:05:09;;;;;;;0.90;0.90;;;18.30;71.70;;;;;;5040602;28;43471;-74
2022/11/08 01:07:37;;;;;;;0.93;0.93;;;18.30;71.60;;;;;;5041952;28;43528;-74
2022/11/08 01:10:06;;;;;;;1.00;1.00;;;18.30;71.70;;;;;;5041649;28;43439;-74
2022/11/08 01:12:35;;;;;;;0.90;0.90;;;18.20;71.70;;;;;;5046821;28;43858;-76
2022/11/08 01:15:04;;;;;;;0.90;0.90;;;18.20;72.10;;;;;;5046984;28;43463;-75
2022/11/08 01:17:32;;;;;;;1.10;1.10;;;18.30;72.00;;;;;;5040810;28;43927;-73
2022/11/08 01:19:59;;;;;;;1.00;1.00;;;18.40;71.60;;;;;;5047588;28;44027;-75
2022/11/08 01:22:27;;;;;;;1.07;1.07;;;18.50;71.30;;;;;;5046635;28;43597;-74
2022/11/08 01:24:55;;;;;;;1.10;1.10;;;18.50;71.00;;;;;;5027798;28;44296;-74
2022/11/08 01:27:23;;;;;;;1.00;1.00;;;18.50;71.00;;;;;;5046444;28;43492;-75
2022/11/08 01:29:52;;;;;;;1.00;1.00;;;18.50;71.20;;;;;;5047032;28;43452;-73
2022/11/08 01:32:20;;;;;;;1.00;1.00;;;18.50;71.20;;;;;;5028243;28;45723;-73
2022/11/08 01:34:48;;;;;;;1.00;1.00;;;18.50;71.10;;;;;;5046079;28;43435;-75
2022/11/08 01:37:16;;;;;;;1.00;1.00;;;18.40;71.00;;;;;;5046274;28;43780;-74
2022/11/08 01:39:44;;;;;;;0.90;0.90;;;18.40;71.20;;;;;;5046656;28;43412;-75
2022/11/08 01:42:12;;;;;;;0.80;0.80;;;18.30;71.60;;;;;;5046503;28;43604;-76
2022/11/08 01:44:59;;;;;;;0.90;0.90;;;18.30;71.60;;;;;;5045241;28;43443;-74
2022/11/08 01:47:27;;;;;;;0.97;0.97;;;18.30;71.50;;;;;;5045933;28;43490;-75
2022/11/08 01:49:55;;;;;;;1.03;1.03;;;18.30;71.40;;;;;;5027587;28;43924;-75
2022/11/08 01:52:30;;;;;;;0.73;0.73;;;18.30;71.40;;;;;;5046084;28;43593;-74
2022/11/08 01:55:06;;;;;;;1.00;1.00;;;18.30;71.60;;;;;;5044146;28;43404;-75
2022/11/08 01:57:36;;;;;;;0.93;0.93;;;18.20;71.90;;;;;;5046316;28;43517;-74
2022/11/08 02:00:09;;;;;;;0.90;0.90;;;18.30;72.00;;;;;;5028804;28;43445;-75
2022/11/08 02:02:37;;;;;;;1.00;1.00;;;18.40;71.60;;;;;;5046154;28;43874;-74
2022/11/08 02:05:07;;;;;;;0.90;0.90;;;18.50;72.00;;;;;;5045977;28;44040;-74
2022/11/08 02:07:55;;;;;;;1.07;1.07;;;18.50;71.00;;;;;;5045792;28;43402;-74
2022/11/08 02:10:25;;;;;;;1.10;1.10;;;18.50;70.90;;;;;;5046432;28;43431;-75
2022/11/08 02:12:53;;;;;;;1.00;1.00;;;18.50;71.20;;;;;;5046023;28;43545;-74
2022/11/08 02:15:22;;;;;;;0.80;0.80;;;18.50;71.10;;;;;;5041976;28;43440;-75
2022/11/08 02:17:50;;;;;;;1.10;1.10;;;18.50;71.10;;;;;;5051160;28;44365;-76
2022/11/08 02:20:18;;;;;;;1.03;1.03;;;18.40;71.00;;;;;;5046166;28;43518;-73
2022/11/08 02:22:48;;;;;;;0.77;0.77;;;18.40;71.10;;;;;;5046006;28;43905;-75
2022/11/08 02:25:17;;;;;;;0.90;0.90;;;18.40;71.20;;;;;;5045424;28;43400;-74
2022/11/08 02:27:45;;;;;;;1.07;1.07;;;18.30;71.70;;;;;;5045925;28;43512;-74
2022/11/08 02:30:13;;;;;;;1.00;1.00;;;18.30;71.50;;;;;;5048101;28;43629;-75
2022/11/08 02:32:41;;;;;;;1.03;1.03;;;18.30;71.40;;;;;;5045737;28;44727;-73
2022/11/08 02:35:10;;;;;;;0.80;0.80;;;18.30;71.40;;;;;;5045515;28;44011;-73
2022/11/08 02:37:38;;;;;;;0.97;0.97;;;18.30;71.50;;;;;;5045382;28;43386;-76
2022/11/08 02:40:07;;;;;;;0.87;0.87;;;18.20;71.70;;;;;;5027809;28;43416;-75
2022/11/08 02:42:37;;;;;;;1.00;1.00;;;18.30;72.00;;;;;;5041893;28;43674;-74
2022/11/08 02:45:06;;;;;;;1.00;1.00;;;18.30;71.70;;;;;;5046482;28;43447;-75
2022/11/08 02:47:34;;;;;;;1.00;1.00;;;18.40;71.90;;;;;;5049421;28;43814;-74
2022/11/08 02:50:02;;;;;;;0.80;0.80;;;18.50;71.00;;;;;;5048720;28;43372;-74
2022/11/08 02:52:30;;;;;;;1.00;1.00;;;18.50;70.90;;;;;;5048969;28;43604;-74
2022/11/08 02:54:58;;;;;;;0.90;0.90;;;18.50;71.00;;;;;;5030660;28;44394;-75
2022/11/08 02:57:26;;;;;;;1.00;1.00;;;18.40;71.10;;;;;;5049176;28;43524;-75
2022/11/08 02:59:55;;;;;;;0.90;0.90;;;18.50;71.00;;;;;;5049406;28;43603;-74
2022/11/08 03:02:23;;;;;;;0.90;0.90;;;18.50;71.00;;;;;;5048870;28;43834;-75
2022/11/08 03:04:51;;;;;;;0.90;0.90;;;18.40;71.00;;;;;;5046390;28;43432;-74
2022/11/08 03:07:19;;;;;;;1.20;1.20;;;18.40;71.00;;;;;;5049219;28;44045;-74
2022/11/08 03:09:51;;;;;;;1.00;1.00;;;18.40;71.40;;;;;;5049176;28;43452;-73
2022/11/08 03:12:19;;;;;;;1.10;1.10;;;18.30;71.50;;;;;;5048713;28;43599;-73
2022/11/08 03:14:47;;;;;;;1.00;1.00;;;18.30;71.40;;;;;;5048731;28;43371;-74
2022/11/08 03:17:17;;;;;;;0.80;0.80;;;18.30;71.30;;;;;;5048393;28;43408;-74
2022/11/08 03:19:45;;;;;;;0.80;0.80;;;18.30;71.40;;;;;;5048776;28;43425;-74
2022/11/08 03:22:13;;;;;;;1.07;1.07;;;18.30;71.40;;;;;;5048947;28;44477;-74
2022/11/08 03:24:41;;;;;;;0.83;0.83;;;18.30;71.90;;;;;;5030365;28;44350;-73
2022/11/08 03:27:09;;;;;;;1.00;1.00;;;18.30;71.80;;;;;;5048381;28;43439;-74
2022/11/08 03:29:37;;;;;;;1.10;1.10;;;18.40;71.50;;;;;;5047050;28;43433;-74
2022/11/08 03:32:05;;;;;;;1.03;1.03;;;18.50;71.10;;;;;;5048105;28;43666;-73
2022/11/08 03:34:34;;;;;;;0.80;0.80;;;18.50;70.80;;;;;;5048468;28;43428;-74
2022/11/08 03:37:02;;;;;;;1.10;1.10;;;18.50;70.70;;;;;;5048895;28;43901;-74
2022/11/08 03:39:30;;;;;;;0.90;0.90;;;18.50;71.00;;;;;;5047891;28;43388;-75
2022/11/08 03:42:01;;;;;;;0.90;0.90;;;18.50;71.00;;;;;;5047875;28;43607;-74
2022/11/08 03:44:29;;;;;;;1.03;1.03;;;18.40;70.80;;;;;;5047697;28;43886;-74
2022/11/08 03:46:57;;;;;;;0.80;0.80;;;18.40;70.90;;;;;;5048265;28;43411;-74
2022/11/08 03:49:25;;;;;;;1.00;1.00;;;18.40;71.00;;;;;;5048531;28;43460;-74
2022/11/08 03:51:55;;;;;;;1.00;1.00;;;18.30;71.20;;;;;;5043211;28;43742;-75
2022/11/08 03:54:22;;;;;;;0.80;0.80;;;18.30;71.50;;;;;;5047923;28;43493;-73
2022/11/08 03:56:50;;;;;;;1.00;1.00;;;18.30;71.40;;;;;;5047680;28;43455;-76
2022/11/08 03:59:18;;;;;;;0.80;0.80;;;18.30;71.40;;;;;;5048455;28;43463;-76
2022/11/08 04:01:46;;;;;;;1.00;1.00;;;18.30;71.40;;;;;;5048116;28;43595;-74
2022/11/08 04:04:14;;;;;;;1.00;1.00;;;18.30;71.50;;;;;;5029353;28;44253;-74
2022/11/08 04:06:42;;;;;;;1.07;1.07;;;18.20;71.80;;;;;;5030573;28;43872;-75
2022/11/08 04:09:11;;;;;;;0.80;0.80;;;18.30;71.90;;;;;;5047904;28;43415;-75
2022/11/08 04:17:15;;;;;;;0.90;0.90;;;18.50;70.90;;;;;;5027779;28;43395;-75
2022/11/08 04:22:28;;;;;;;1.00;1.00;;;18.40;71.10;;;;;;5029333;28;43904;-74
2022/11/08 04:24:58;;;;;;;0.90;0.90;;;18.40;71.00;;;;;;5025878;28;44316;-75
2022/11/08 04:27:25;;;;;;;0.80;0.80;;;18.40;71.00;;;;;;5041375;28;44000;-75
2022/11/08 04:29:53;;;;;;;0.80;0.80;;;18.40;70.90;;;;;;5041813;28;43440;-75
2022/11/08 04:32:22;;;;;;;1.00;1.00;;;18.40;71.10;;;;;;5029330;28;44857;-74
2022/11/08 04:34:50;;;;;;;0.90;0.90;;;18.30;71.10;;;;;;5047637;28;43519;-74
2022/11/08 04:37:18;;;;;;;0.90;0.90;;;18.30;71.50;;;;;;5031592;28;43531;-74
2022/11/08 04:39:45;;;;;;;1.73;1.10;;;18.30;71.40;;;;;;5047284;28;43435;-74
2022/11/08 04:42:15;;;;;;;1.30;1.30;;;18.30;71.30;;;;;;5046918;28;43924;-74
2022/11/08 04:44:42;;;;;;;1.10;1.10;;;18.30;71.30;;;;;;5046951;28;43447;-76
2022/11/08 04:47:10;;;;;;;1.50;1.50;;;18.20;71.30;;;;;;5047251;28;43903;-74
2022/11/08 04:49:38;;;;;;;1.60;1.50;;;18.20;71.70;;;;;;5047536;28;43705;-75
2022/11/08 04:52:07;;;;;;;1.93;1.63;;;18.30;71.90;;;;;;5045026;28;43970;-75
2022/11/08 04:54:35;;;;;;;3.63;2.00;;;18.30;71.60;;;;;;5028803;28;44569;-73
2022/11/08 04:57:03;;;;;;;2.13;1.90;;;18.40;71.20;;;;;;5047190;28;44047;-74
2022/11/08 04:59:32;;;;;;;2.30;2.10;;;18.50;70.70;;;;;;5047480;28;43505;-75
2022/11/08 05:02:00;;;;;;;2.67;1.80;;;18.60;70.50;;;;;;5028834;28;45666;-75
2022/11/08 05:04:28;;;;;;;2.20;2.00;;;18.60;70.40;;;;;;5046842;28;43752;-75
2022/11/08 05:06:56;;;;;;;2.07;1.90;;;18.50;70.40;;;;;;5047263;28;43467;-75
2022/11/08 05:09:24;;;;;;;1.83;1.73;;;18.50;70.50;;;;;;5046188;28;43436;-75
2022/11/08 05:11:52;;;;;;;1.97;1.80;;;18.40;70.60;;;;;;5028352;28;45232;-74
2022/11/08 05:14:20;;;;;;;1.90;1.80;;;18.40;71.00;;;;;;5028469;28;44355;-75
2022/11/08 05:16:49;;;;;;;3.13;2.40;;;18.30;71.20;;;;;;5047174;28;43919;-74
2022/11/08 05:23:22;;;;;;;1.93;1.83;;;18.30;71.10;;;;;;5046874;28;43989;-74
2022/11/08 05:24:51;;;;;;;1.87;1.77;;;18.30;71.10;;;;;;5046128;28;44067;-76
2022/11/08 05:27:19;;;;;;;2.03;1.90;;;18.30;71.20;;;;;;5046599;28;43551;-74
2022/11/08 05:29:46;;;;;;;9.33;2.00;;;18.20;71.50;;;;;;5047326;28;44049;-73
2022/11/08 05:32:16;;;;;;;3.70;2.03;;;18.30;71.60;;;;;;5046159;28;43608;-74
2022/11/08 05:34:44;;;;;;;1.87;1.77;;;18.30;71.50;;;;;;5043742;28;43467;-74
2022/11/08 05:37:12;;;;;;;1.60;1.50;;;18.20;71.20;;;;;;5046333;28;43456;-74
2022/11/08 05:39:40;;;;;;;2.17;1.97;;;18.30;71.40;;;;;;5046498;28;43429;-74
2022/11/08 05:42:07;;;;;;;2.03;1.80;;;18.20;71.30;;;;;;5028268;28;45740;-75
2022/11/08 05:44:35;;;;;;;2.40;2.20;;;18.20;71.70;;;;;;5046240;28;43492;-75
2022/11/08 05:47:03;;;;;;;2.20;2.10;;;18.20;71.80;;;;;;5045975;28;43384;-73
2022/11/08 05:49:33;;;;;;;4.13;2.03;;;18.30;71.40;;;;;;5046119;28;43768;-75
2022/11/08 05:52:01;;;;;;;3.00;2.37;;;18.40;71.10;;;;;;5045064;28;43823;-73
2022/11/08 05:54:29;;;;;;;2.33;2.13;;;18.60;70.70;;;;;;5045900;28;43473;-74
2022/11/08 05:56:57;;;;;;;2.63;2.43;;;18.60;70.20;;;;;;5046559;28;43387;-74
2022/11/08 05:59:24;;;;;;;2.60;2.40;;;18.60;70.10;;;;;;5046766;28;44083;-75
2022/11/08 06:01:52;;;;;;;3.03;2.57;;;18.60;70.20;;;;;;5046330;28;43599;-74
2022/11/08 06:04:20;;;;;;;2.97;2.30;;;18.50;70.30;;;;;;5027527;28;44289;-74
2022/11/08 06:06:51;;;;;;;2.50;2.30;;;18.50;70.50;;;;;;5046301;28;43356;-74
2022/11/08 06:09:19;;;;;;;2.50;2.30;;;18.40;70.90;;;;;;5046065;28;43478;-74
2022/11/08 06:11:46;;;;;;;2.80;2.30;;;18.40;71.00;;;;;;5021513;28;45492;-73
2022/11/08 06:14:14;;;;;;;2.23;2.10;;;18.40;70.90;;;;;;5041604;28;43543;-75
2022/11/08 06:16:42;;;;;;;2.20;2.10;;;18.40;71.00;;;;;;5046151;28;43487;-73
2022/11/08 06:19:10;;;;;;;2.40;2.20;;;18.30;71.00;;;;;;5040836;28;43332;-75
2022/11/08 06:21:38;;;;;;;2.47;2.20;;;18.30;71.10;;;;;;5049629;28;44510;-74
2022/11/08 06:24:08;;;;;;;2.33;2.23;;;18.30;71.50;;;;;;5047919;28;43539;-74
2022/11/08 06:26:36;;;;;;;2.40;2.20;;;18.30;71.40;;;;;;5049599;28;43317;-74
2022/11/08 06:29:04;;;;;;;2.93;2.63;;;18.30;71.30;;;;;;5031705;28;43999;-74
2022/11/08 06:31:32;;;;;;;2.37;2.17;;;18.30;71.20;;;;;;5049674;28;43580;-74
2022/11/08 06:34:00;;;;;;;2.30;2.10;;;18.20;71.20;;;;;;5031581;28;44297;-74
2022/11/08 06:36:27;;;;;;;3.70;2.30;;;18.20;71.30;;;;;;5043325;28;43594;-75
2022/11/08 06:38:55;;;;;;;2.10;2.00;;;18.20;71.60;;;;;;5050023;28;43456;-74
2022/11/08 06:41:26;;;;;;;2.53;2.33;;;18.20;71.60;;;;;;5042829;28;43799;-75
2022/11/08 06:43:54;;;;;;;2.97;2.00;;;18.20;71.50;;;;;;5049363;28;43413;-75
2022/11/08 06:46:23;;;;;;;2.40;2.20;;;18.20;71.30;;;;;;5049611;28;43476;-73
2022/11/08 06:48:50;;;;;;;2.53;2.43;;;18.20;71.30;;;;;;5049688;28;43943;-75
2022/11/08 06:51:18;;;;;;;3.27;2.57;;;18.20;71.40;;;;;;5043909;28;43604;-74
2022/11/08 06:53:46;;;;;;;2.97;2.27;;;18.20;71.70;;;;;;5049633;28;43447;-73
2022/11/08 06:56:14;;;;;;;2.33;1.90;;;18.20;71.70;;;;;;5049164;28;43913;-75
2022/11/08 06:58:43;;;;;;;2.00;1.90;;;18.30;72.10;;;;;;5049483;28;43429;-74
2022/11/08 07:01:12;;;;;;;2.40;2.20;;;18.40;71.00;;;;;;5048969;28;43908;-74
2022/11/08 07:03:41;;;;;;;2.10;2.00;;;18.50;70.50;;;;;;5049022;28;43335;-75
2022/11/08 07:06:09;;;;;;;3.10;2.40;;;18.60;70.10;;;;;;5049091;28;43364;-72
2022/11/08 07:08:37;;;;;;;1.90;1.80;;;18.70;70.10;;;;;;5049633;28;43755;-74
2022/11/08 07:11:05;;;;;;;2.20;2.00;;;18.60;70.00;;;;;;5049054;28;43994;-75
2022/11/08 07:13:33;;;;;;;2.13;2.03;;;18.50;70.10;;;;;;5049062;28;43399;-75
2022/11/08 07:16:02;;;;;;;2.03;2.00;;;18.50;70.40;;;;;;5049377;28;43412;-76
2022/11/08 07:18:30;;;;;;;2.10;2.00;;;18.40;70.60;;;;;;5050106;28;43367;-75
2022/11/08 07:20:59;;;;;;;2.20;2.10;;;18.40;70.90;;;;;;5030305;28;45339;-74
2022/11/08 07:23:27;;;;;;;2.10;2.00;;;18.40;70.90;;;;;;5049044;28;44012;-74
2022/11/08 07:25:55;;;;;;;1.90;1.80;;;18.30;70.80;;;;;;5048128;28;43600;-74
2022/11/08 07:28:23;;;;;;;2.03;1.93;;;18.30;70.90;;;;;;5030694;28;43479;-75
2022/11/08 07:30:51;;;;;;;2.00;1.90;;;18.30;71.10;;;;;;5047322;28;43814;-75
2022/11/08 07:33:20;;;;;;;2.17;1.97;;;18.20;71.30;;;;;;5049378;28;44589;-74
2022/11/08 07:35:49;;;;;;;2.30;2.20;;;18.20;71.40;;;;;;5048478;28;43309;-75
2022/11/08 07:38:17;;;;;;;2.40;2.30;;;18.30;71.30;;;;;;5048689;28;43431;-73
2022/11/08 07:40:44;;;;;;;2.43;1.90;;;18.20;71.20;;;;;;5048701;28;44053;-74
2022/11/08 07:43:12;;;;;;;2.20;2.10;;;18.20;71.20;;;;;;5048391;28;43384;-73
2022/11/08 07:45:42;;;;;;;1.90;1.80;;;18.20;71.30;;;;;;5030310;28;44031;-75
2022/11/08 07:48:12;;;;;;;1.83;1.70;;;18.20;71.70;;;;;;5048726;28;44205;-76
2022/11/08 07:50:42;;;;;;;1.63;1.60;;;18.20;71.60;;;;;;5042952;28;43699;-75
2022/11/08 07:53:10;;;;;;;1.87;1.80;;;18.30;71.10;;;;;;5048564;28;43894;-73
2022/11/08 07:55:38;;;;;;;1.47;1.47;;;18.40;70.70;;;;;;5029782;28;43965;-75
2022/11/08 07:58:06;;;;;;;2.20;2.10;;;18.50;70.60;;;;;;5048737;28;44028;-74
2022/11/08 08:00:36;;;;;;;1.80;1.70;;;18.50;70.50;;;;;;5030595;28;44713;-75
2022/11/08 08:03:04;;;;;;;1.93;1.83;;;18.50;70.70;;;;;;5048804;28;43441;-75
2022/11/08 08:05:34;;;;;;;1.60;1.60;;;18.50;70.60;;;;;;5047005;28;43529;-74
2022/11/08 08:08:03;;;;;;;1.77;1.70;;;18.50;70.60;;;;;;5048640;28;43365;-75
2022/11/08 08:10:31;;;;;;;1.67;1.67;;;18.40;70.60;;;;;;5048072;28;44015;-74
2022/11/08 08:12:59;;;;;;;1.83;1.73;;;18.40;70.70;;;;;;5048124;28;44010;-75
2022/11/08 08:15:27;;;;;;;1.80;1.70;;;18.40;70.90;;;;;;5048513;28;43493;-74
2022/11/08 08:17:55;;;;;;;1.90;1.80;;;18.40;71.90;;;;;;5048489;28;43505;-73
2022/11/08 08:20:23;;;;;;;1.70;1.60;;;18.30;70.90;;;;;;5026319;28;45370;-75
2022/11/08 08:22:51;;;;;;;1.90;1.80;;;18.30;71.50;;;;;;5048179;28;43439;-74
2022/11/08 08:25:20;;;;;;;1.70;1.70;;;18.30;70.90;;;;;;5047502;28;43438;-74
2022/11/08 08:27:48;;;;;;;1.90;1.80;;;18.30;71.00;;;;;;5048364;28;43538;-74
2022/11/08 08:30:17;;;;;;;1.90;1.80;;;18.30;71.20;;;;;;5048022;28;43833;-75
2022/11/08 08:32:45;;;;;;;1.90;1.80;;;18.30;71.40;;;;;;5029250;28;44790;-75
2022/11/08 08:35:26;;;;;;;1.80;1.70;;;18.40;71.10;;;;;;5047555;28;43413;-74
2022/11/08 08:37:58;;;;;;;1.80;1.70;;;18.40;70.60;;;;;;5048228;28;43984;-75
2022/11/08 08:40:27;;;;;;;2.10;2.00;;;18.50;70.30;;;;;;5047590;28;43922;-74
2022/11/08 08:42:57;;;;;;;1.80;1.80;;;18.50;70.20;;;;;;5046402;28;43430;-75
2022/11/08 08:45:25;;;;;;;1.60;1.50;;;18.50;70.40;;;;;;5047521;28;43424;-74
2022/11/08 08:47:53;;;;;;;1.80;1.70;;;18.50;70.50;;;;;;5029464;28;43423;-75
2022/11/08 08:50:21;;;;;;;1.63;1.53;;;18.50;70.50;;;;;;5047105;28;43619;-73
2022/11/08 08:52:49;;;;;;;1.30;1.30;;;18.50;70.50;;;;;;5047525;28;43436;-74
2022/11/08 08:55:18;;;;;;;1.60;1.60;;;18.40;70.60;;;;;;5047043;28;43467;-74
2022/11/08 08:57:47;;;;;;;1.60;1.60;;;18.40;70.70;;;;;;5029589;28;43674;-74
2022/11/08 09:00:16;;;;;;;1.60;1.60;;;18.30;71.00;;;;;;5028732;28;45722;-74
2022/11/08 09:03:04;;;;;;;1.20;1.20;;;18.30;70.90;;;;;;5026842;28;44370;-74
2022/11/08 09:05:32;;;;;;;1.77;1.77;;;18.30;70.90;;;;;;5047237;28;43961;-74
2022/11/08 09:08:00;;;;;;;1.67;1.67;;;18.30;70.90;;;;;;5043635;28;43416;-73
2022/11/08 09:10:28;;;;;;;1.70;1.60;;;18.30;71.10;;;;;;5047400;28;43818;-74
2022/11/08 09:12:57;;;;;;;1.60;1.60;;;18.30;71.10;;;;;;5029038;28;44857;-75
2022/11/08 09:15:25;;;;;;;1.50;1.40;;;18.30;72.00;;;;;;5047386;28;43569;-73
2022/11/08 09:17:53;;;;;;;1.67;1.67;;;18.30;71.10;;;;;;5047102;28;43571;-74
2022/11/08 09:20:21;;;;;;;1.40;1.40;;;18.30;71.10;;;;;;5047096;28;43604;-74
2022/11/08 09:22:49;;;;;;;1.67;1.57;;;18.30;71.10;;;;;;5046519;28;43483;-73
2022/11/08 09:25:17;;;;;;;1.40;1.40;;;18.30;71.10;;;;;;5046911;28;43430;-74
2022/11/08 09:27:45;;;;;;;1.50;1.50;;;18.30;71.10;;;;;;5047522;28;43364;-74
2022/11/08 09:30:15;;;;;;;1.30;1.30;;;18.30;71.50;;;;;;5045424;28;45572;-75
2022/11/08 09:32:43;;;;;;;1.50;1.40;;;18.30;71.30;;;;;;5046423;28;43423;-73
2022/11/08 09:35:28;;;;;;;1.30;1.30;;;18.40;70.90;;;;;;5028777;28;43496;-75
2022/11/08 09:37:56;;;;;;;1.50;1.50;;;18.50;70.40;;;;;;5046743;28;43508;-74
2022/11/08 09:40:32;;;;;;;1.40;1.40;;;18.60;69.90;;;;;;5051361;28;45368;-75
2022/11/08 09:43:06;;;;;;;1.50;1.50;;;18.70;69.80;;;;;;5046786;28;44073;-73
2022/11/08 09:45:38;;;;;;;1.50;1.50;;;18.70;69.80;;;;;;5041116;28;43956;-74
2022/11/08 09:48:06;;;;;;;1.43;1.37;;;18.60;69.90;;;;;;5047207;28;43339;-74
2022/11/08 09:50:37;;;;;;;1.33;1.33;;;18.60;70.10;;;;;;5028610;28;46001;-75
2022/11/08 09:53:14;;;;;;;1.20;1.20;;;18.50;70.20;;;;;;5046565;28;43400;-73
2022/11/08 09:55:45;;;;;;;1.50;1.50;;;18.50;70.60;;;;;;5046471;28;43405;-73
2022/11/08 09:58:19;;;;;;;1.43;1.43;;;18.50;70.60;;;;;;5043677;28;43457;-74
2022/11/08 10:00:49;;;;;;;1.40;1.40;;;18.40;70.60;;;;;;5046683;28;43560;-74
2022/11/08 10:03:18;;;;;;;1.40;1.40;;;18.40;70.70;;;;;;5026300;28;44780;-75
2022/11/08 10:05:51;;;;;;;1.20;1.20;;;18.40;70.70;;;;;;5046187;28;43520;-75
2022/11/08 10:08:24;;;;;;;1.30;1.30;;;18.40;71.00;;;;;;5047016;28;43474;-74
2022/11/08 10:11:02;;;;;;;1.40;1.40;;;18.30;70.90;;;;;;5046182;28;43900;-75
2022/11/08 10:13:33;;;;;;;1.40;1.40;;;18.40;70.70;;;;;;5040740;28;43467;-74
2022/11/08 10:16:07;;;;;;;1.37;1.33;;;18.40;70.60;;;;;;5047061;28;43394;-75
2022/11/08 10:18:57;;;;;;;1.33;1.33;;;18.40;70.50;;;;;;5046885;28;43788;-73
2022/11/08 10:21:41;;;;;;;1.40;1.40;;;18.40;70.60;;;;;;5040858;28;43596;-74
2022/11/08 10:24:12;;;;;;;1.37;1.37;;;18.40;70.80;;;;;;5041477;28;43420;-74
2022/11/08 10:26:44;;;;;;;1.23;1.23;;;18.40;70.70;;;;;;5040217;28;43389;-74
2022/11/08 10:29:16;;;;;;;1.17;1.17;;;18.50;71.20;;;;;;5028252;28;43505;-72
2022/11/08 10:31:46;;;;;;;1.20;1.20;;;18.50;70.20;;;;;;5046291;28;44036;-74
2022/11/08 10:34:15;;;;;;;1.27;1.27;;;18.50;70.20;;;;;;5046014;28;43464;-73
2022/11/08 10:36:44;;;;;;;1.40;1.40;;;18.50;70.30;;;;;;5046136;28;43333;-74
2022/11/08 10:39:14;;;;;;;1.33;1.33;;;18.50;70.50;;;;;;5046552;28;43482;-74
2022/11/08 10:41:44;;;;;;;1.20;1.20;;;18.50;70.40;;;;;;5045280;28;43989;-75
2022/11/08 10:44:14;;;;;;;1.30;1.30;;;18.50;70.40;;;;;;5046162;28;43432;-75
2022/11/08 10:46:43;;;;;;;1.30;1.30;;;18.50;70.50;;;;;;5046284;28;43412;-74
2022/11/08 10:49:14;;;;;;;1.30;1.30;;;18.40;70.50;;;;;;5043415;28;43464;-74
2022/11/08 10:51:43;;;;;;;1.10;1.10;;;18.40;70.60;;;;;;5040127;28;43879;-74
2022/11/08 10:54:39;;;;;;;1.27;1.27;;;18.30;70.80;;;;;;5045830;28;43446;-73
2022/11/08 10:57:07;;;;;;;1.40;1.40;;;18.40;70.80;;;;;;5040206;28;43554;-74
2022/11/08 10:59:35;;;;;;;1.10;1.10;;;18.40;70.80;;;;;;5045883;28;43370;-75
2022/11/08 11:02:03;;;;;;;1.33;1.33;;;18.40;70.90;;;;;;5045590;28;43934;-75
2022/11/08 11:04:33;;;;;;;1.20;1.20;;;18.30;70.80;;;;;;5027706;28;44841;-75
2022/11/08 11:07:01;;;;;;;1.37;1.37;;;18.30;71.00;;;;;;5048221;28;43387;-74
2022/11/08 11:09:29;;;;;;;1.20;1.20;;;18.30;71.30;;;;;;5030990;28;43496;-74
2022/11/08 11:11:58;;;;;;;1.10;1.10;;;18.40;71.10;;;;;;5049048;28;43848;-74
2022/11/08 11:14:26;;;;;;;1.20;1.20;;;18.50;70.70;;;;;;5030295;28;44283;-75
2022/11/08 11:16:56;;;;;;;1.10;1.10;;;18.60;70.30;;;;;;5049143;28;43420;-74
2022/11/08 11:19:24;;;;;;;1.10;1.10;;;18.60;70.00;;;;;;5049533;28;43412;-76
2022/11/08 11:21:56;;;;;;;1.10;1.10;;;18.60;69.90;;;;;;5054567;28;46132;-74
2022/11/08 11:24:24;;;;;;;1.13;1.13;;;18.60;70.00;;;;;;5049082;28;43472;-74
2022/11/08 11:27:00;;;;;;;1.03;1.03;;;18.60;70.10;;;;;;5048993;28;43412;-75
2022/11/08 11:29:29;;;;;;;1.30;1.30;;;18.50;70.30;;;;;;5046258;28;43436;-74
2022/11/08 11:31:57;;;;;;;1.33;1.33;;;18.40;70.50;;;;;;5048822;28;44044;-75
2022/11/08 11:34:44;;;;;;;1.30;1.30;;;18.40;70.60;;;;;;5048189;28;43428;-75
2022/11/08 11:37:17;;;;;;;1.30;1.30;;;18.40;70.60;;;;;;5048646;28;43463;-76
2022/11/08 11:39:49;;;;;;;1.20;1.20;;;18.40;70.70;;;;;;5042529;28;43420;-75
2022/11/08 11:42:20;;;;;;;1.50;1.50;;;18.40;70.80;;;;;;5030572;28;45908;-75
2022/11/08 11:45:11;;;;;;;1.10;1.10;;;18.40;70.90;;;;;;5046105;28;43420;-73
2022/11/08 11:47:43;;;;;;;1.13;1.13;;;18.40;71.20;;;;;;5049076;28;43469;-74
2022/11/08 11:50:17;;;;;;;1.30;1.30;;;18.40;71.20;;;;;;5027672;28;43527;-74
2022/11/08 11:52:47;;;;;;;1.30;1.30;;;18.30;71.10;;;;;;5047567;28;43604;-75
2022/11/08 11:55:15;;;;;;;1.33;1.33;;;18.40;71.30;;;;;;5048419;28;43483;-75
2022/11/08 11:57:49;;;;;;;1.00;1.00;;;18.30;71.20;;;;;;5048297;28;43414;-74
2022/11/08 12:00:17;;;;;;;1.20;1.20;;;18.30;71.40;;;;;;5048961;28;43531;-76
2022/11/08 12:03:22;;;;;;;1.20;1.20;;;18.30;71.40;;;;;;5029707;28;45872;-74
2022/11/08 12:06:12;;;;;;;1.07;1.07;;;18.40;71.20;;;;;;4954525;28;44586;-76
2022/11/08 12:09:05;;;;;;;1.10;1.10;;;18.50;70.60;;;;;;4962793;28;43471;-75
2022/11/08 12:11:40;;;;;;;1.10;1.10;;;18.60;70.60;;;;;;5030470;28;43458;-75
2022/11/08 12:14:23;;;;;;;1.20;1.20;;;18.60;70.70;;;;;;5048098;28;43854;-74
2022/11/08 12:16:56;;;;;;;1.07;1.07;;;18.50;70.60;;;;;;5047795;28;43474;-75
2022/11/08 12:19:31;;;;;;;1.00;1.00;;;18.50;70.60;;;;;;5029913;28;43412;-73
2022/11/08 12:22:02;;;;;;;1.20;1.10;;;18.50;70.70;;;;;;5048671;28;43448;-74
2022/11/08 12:24:37;;;;;;;1.20;1.20;;;18.50;70.80;;;;;;5048140;28;43563;-74
2022/11/08 12:27:08;;;;;;;1.30;1.30;;;18.50;71.00;;;;;;5028971;28;43345;-73
2022/11/08 12:29:37;;;;;;;1.17;1.17;;;18.40;71.00;;;;;;5047982;28;43986;-76
2022/11/08 12:32:27;;;;;;;1.00;1.00;;;18.40;70.90;;;;;;5048561;28;43424;-73
2022/11/08 12:35:04;;;;;;;1.03;1.03;;;18.40;70.90;;;;;;5047528;28;43937;-73
2022/11/08 12:37:39;;;;;;;1.10;1.10;;;18.40;70.90;;;;;;5048062;28;43508;-73
2022/11/08 12:40:17;;;;;;;1.00;1.00;;;18.40;70.90;;;;;;5047958;28;43432;-74
2022/11/08 12:43:00;;;;;;;1.33;1.33;;;18.40;71.00;;;;;;5048182;28;43547;-73
2022/11/08 12:45:41;;;;;;;1.10;1.10;;;18.40;71.50;;;;;;5048040;28;44088;-75
2022/11/08 12:48:15;;;;;;;1.10;1.10;;;18.40;71.20;;;;;;5024820;28;45265;-73
2022/11/08 12:50:46;;;;;;;1.30;1.30;;;18.50;70.90;;;;;;5026880;28;43353;-74
2022/11/08 12:53:39;;;;;;;1.07;1.07;;;18.60;70.40;;;;;;5048344;28;43478;-73
2022/11/08 12:56:13;;;;;;;1.10;1.10;;;18.70;70.20;;;;;;5047976;28;43913;-74
2022/11/08 12:58:42;;;;;;;1.23;1.23;;;18.70;70.10;;;;;;5047763;28;43555;-74
2022/11/08 13:01:11;;;;;;;1.10;1.10;;;18.60;70.10;;;;;;5041289;28;43883;-75
2022/11/08 13:04:28;;;;;;;1.10;1.10;;;18.60;70.30;;;;;;5048238;28;43333;-75
2022/11/08 13:06:59;;;;;;;1.13;1.13;;;18.50;70.50;;;;;;5044301;28;43857;-74
2022/11/08 13:09:34;;;;;;;1.10;1.10;;;18.50;70.90;;;;;;5047300;28;43330;-73
2022/11/08 13:12:11;;;;;;;1.10;1.10;;;18.50;70.90;;;;;;5047463;28;43392;-74
2022/11/08 13:14:39;;;;;;;1.37;1.37;;;18.50;70.90;;;;;;5047912;28;43464;-74
2022/11/08 13:17:17;;;;;;;1.27;1.27;;;18.40;70.80;;;;;;5029377;28;45349;-74
2022/11/08 13:20:03;;;;;;;1.20;1.20;;;18.40;70.90;;;;;;5047419;28;43539;-74
2022/11/08 13:23:00;;;;;;;1.20;1.20;;;18.40;70.90;;;;;;5023093;28;43380;-74
2022/11/08 13:25:38;;;;;;;1.13;1.13;;;18.40;71.00;;;;;;5047445;28;43467;-73